Time;durP1;ratioP1;P1;durP2;ratioP2;P2;SDS_P1;SDS_P2;PMS_P1;PMS_P2;Temp;Humidity;BMP_temperature;BMP_pressure;BME280_temperature;BME280_humidity;BME280_pressure;Samples;Min_cycle;Max_cycle;Signal;HPM_P1;HPM_P2
2023/12/17 00:01:48;;;;;;;;;;;;;;;6.57;100.00;102981.41;4881630;29;19922;-73
2023/12/17 00:04:51;;;;;;;;;;;;;;;6.62;100.00;102982.31;4881233;29;19922;-73
2023/12/17 00:07:55;;;;;;;;;;;;;;;6.68;100.00;102990.16;4881498;29;19922;-73
2023/12/17 00:10:58;;;;;;;;;;;;;;;6.57;100.00;102994.41;4881483;29;19966;-73
2023/12/17 00:14:01;;;;;;;;;;;;;;;6.72;100.00;102999.69;4881667;29;20328;-73
2023/12/17 00:17:04;;;;;;;;;;;;;;;6.88;100.00;102994.53;4881306;29;20285;-73
2023/12/17 00:20:08;;;;;;;;;;;;;;;6.85;100.00;102994.53;4881301;29;20353;-73
2023/12/17 00:23:11;;;;;;;;;;;;;;;6.75;100.00;102993.63;4881348;29;19922;-73
2023/12/17 00:26:15;;;;;;;;;;;;;;;6.78;100.00;102997.97;4881288;29;20307;-73
2023/12/17 00:29:18;;;;;;;;;;;;;;;6.88;100.00;103004.94;4881184;29;20394;-73
2023/12/17 00:32:22;;;;;;;;;;;;;;;6.99;100.00;103004.09;4897583;29;19923;-73
2023/12/17 00:35:25;;;;;;;;;;;;;;;7.04;100.00;103006.69;4880953;29;19943;-73
2023/12/17 00:38:28;;;;;;;;;;;;;;;7.05;100.00;103013.66;4875915;29;19971;-73
2023/12/17 00:41:33;;;;;;;;;;;;;;;7.08;100.00;103005.84;4880834;29;20281;-73
2023/12/17 00:44:36;;;;;;;;;;;;;;;7.08;100.00;103008.44;4884401;29;19922;-73
2023/12/17 00:47:39;;;;;;;;;;;;;;;7.09;100.00;103010.19;4899425;29;19944;-73
2023/12/17 00:50:43;;;;;;;;;;;;;;;7.08;100.00;102997.16;4899478;29;19922;-73
2023/12/17 00:53:46;;;;;;;;;;;;;;;7.05;100.00;102994.56;4899425;29;19977;-73
2023/12/17 00:56:49;;;;;;;;;;;;;;;7.08;100.00;102985.03;4899325;29;20018;-73
2023/12/17 00:59:52;;;;;;;;;;;;;;;7.01;100.00;102983.28;4899238;29;19951;-73
2023/12/17 01:02:55;;;;;;;;;;;;;;;7.04;100.00;102979.81;4899169;29;20391;-73
2023/12/17 01:05:58;;;;;;;;;;;;;;;7.05;100.00;102978.94;4898981;29;19971;-73
2023/12/17 01:09:00;;;;;;;;;;;;;;;7.03;100.00;102976.38;4899159;29;19923;-73
2023/12/17 01:12:05;;;;;;;;;;;;;;;7.04;100.00;102974.63;4899058;29;20295;-74
2023/12/17 01:15:08;;;;;;;;;;;;;;;7.02;100.00;102966.84;4898901;29;19927;-74
2023/12/17 01:18:11;;;;;;;;;;;;;;;6.98;100.00;102965.94;4899324;29;19966;-74
2023/12/17 01:21:15;;;;;;;;;;;;;;;6.99;100.00;102964.22;4898928;29;19971;-73
2023/12/17 01:24:18;;;;;;;;;;;;;;;7.01;100.00;102974.63;4899040;29;19944;-73
2023/12/17 01:27:22;;;;;;;;;;;;;;;6.99;100.00;102974.63;4898789;29;20051;-73
2023/12/17 01:30:25;;;;;;;;;;;;;;;7.01;100.00;102975.47;4898748;29;19923;-73
2023/12/17 01:33:28;;;;;;;;;;;;;;;6.92;100.00;102976.34;4898797;29;19926;-73
2023/12/17 01:36:31;;;;;;;;;;;;;;;6.92;100.00;102985.88;4898608;29;20071;-73
2023/12/17 01:39:34;;;;;;;;;;;;;;;7.01;100.00;102985.88;4898534;29;19970;-73
2023/12/17 01:42:37;;;;;;;;;;;;;;;6.97;100.00;102984.16;4897773;29;19926;-73
2023/12/17 01:45:41;;;;;;;;;;;;;;;6.92;100.00;102975.47;4897506;29;19922;-73
2023/12/17 01:48:44;;;;;;;;;;;;;;;6.86;100.00;102981.53;4897783;29;20299;-73
2023/12/17 01:51:48;;;;;;;;;;;;;;;6.88;100.00;102986.72;4897666;29;19923;-73
2023/12/17 01:54:51;;;;;;;;;;;;;;;6.83;100.00;102988.44;4897850;29;20015;-73
2023/12/17 01:57:56;;;;;;;;;;;;;;;6.94;100.00;102994.56;4897627;29;19923;-73
2023/12/17 02:00:59;;;;;;;;;;;;;;;6.98;100.00;102991.09;4897538;29;19953;-73
2023/12/17 02:04:02;;;;;;;;;;;;;;;6.95;100.00;102991.06;4897581;29;19922;-73
2023/12/17 02:07:06;;;;;;;;;;;;;;;6.85;100.00;102984.13;4897449;29;19922;-73
2023/12/17 02:10:09;;;;;;;;;;;;;;;6.74;100.00;102979.75;4894829;29;19978;-74
2023/12/17 02:13:14;;;;;;;;;;;;;;;6.86;100.00;102981.53;4882326;29;19942;-73
2023/12/17 02:16:18;;;;;;;;;;;;;;;6.93;100.00;102982.41;4889610;29;20443;-73
2023/12/17 02:19:20;;;;;;;;;;;;;;;6.98;100.00;102988.47;4879720;29;20410;-73
2023/12/17 02:22:24;;;;;;;;;;;;;;;6.96;100.00;102972.88;4890780;29;19970;-73
2023/12/17 02:25:27;;;;;;;;;;;;;;;6.98;100.00;102967.66;4893332;29;19958;-73
2023/12/17 02:28:30;;;;;;;;;;;;;;;6.96;100.00;102961.63;4888187;29;20015;-72
2023/12/17 02:31:54;;;;;;;;;;;;;;;6.99;100.00;102957.28;4887151;29;20292;-73
2023/12/17 02:34:57;;;;;;;;;;;;;;;6.95;100.00;102960.72;4894194;29;19973;-74
2023/12/17 02:38:01;;;;;;;;;;;;;;;6.94;100.00;102958.13;4896768;29;20014;-74
2023/12/17 02:41:04;;;;;;;;;;;;;;;6.96;100.00;102957.28;4857973;29;1160115;-74
2023/12/17 02:44:07;;;;;;;;;;;;;;;6.95;100.00;102952.06;4888941;29;19922;-74
2023/12/17 02:47:23;;;;;;;;;;;;;;;6.93;100.00;102953.81;4898404;29;20500;-74
2023/12/17 02:50:28;;;;;;;;;;;;;;;6.99;100.00;102948.63;4897585;29;20383;-74
2023/12/17 02:53:31;;;;;;;;;;;;;;;7.02;100.00;102946.03;4897868;29;19922;-72
2023/12/17 02:56:40;;;;;;;;;;;;;;;6.99;100.00;102936.47;4897782;29;19926;-72
2023/12/17 02:59:43;;;;;;;;;;;;;;;6.98;100.00;102934.72;4901413;29;19984;-71
2023/12/17 03:02:47;;;;;;;;;;;;;;;6.98;100.00;102928.66;4901390;29;19922;-71
2023/12/17 03:05:50;;;;;;;;;;;;;;;6.89;100.00;102923.44;4901431;29;19922;-71
2023/12/17 03:08:53;;;;;;;;;;;;;;;6.93;100.00;102920.00;4901403;29;20394;-71
2023/12/17 03:11:56;;;;;;;;;;;;;;;6.96;100.00;102922.59;4901271;29;19937;-71
2023/12/17 03:14:59;;;;;;;;;;;;;;;6.95;100.00;102918.25;4901081;29;19922;-71
2023/12/17 03:18:03;;;;;;;;;;;;;;;6.90;100.00;102923.44;4901156;29;19923;-71
2023/12/17 03:21:07;;;;;;;;;;;;;;;6.98;100.00;102918.25;4901129;29;19941;-72
2023/12/17 03:24:10;;;;;;;;;;;;;;;6.91;100.00;102921.72;4900748;29;20300;-72
2023/12/17 03:27:14;;;;;;;;;;;;;;;6.96;100.00;102926.06;4900950;29;19985;-72
2023/12/17 03:30:17;;;;;;;;;;;;;;;6.94;100.00;102926.91;4894327;29;19963;-73
2023/12/17 03:33:20;;;;;;;;;;;;;;;6.97;100.00;102916.53;4900869;29;19926;-72
2023/12/17 03:36:23;;;;;;;;;;;;;;;6.98;100.00;102923.44;4900787;29;20382;-72
2023/12/17 03:39:26;;;;;;;;;;;;;;;6.94;100.00;102919.13;4900729;29;20410;-72
2023/12/17 03:42:29;;;;;;;;;;;;;;;6.98;100.00;102911.31;4900678;29;20028;-73
2023/12/17 03:45:33;;;;;;;;;;;;;;;6.98;100.00;102913.03;4900759;29;20006;-73
2023/12/17 03:48:39;;;;;;;;;;;;;;;6.98;100.00;102913.91;4897765;29;19925;-72
2023/12/17 03:51:42;;;;;;;;;;;;;;;7.02;100.00;102907.00;4900540;29;19922;-72
2023/12/17 03:54:45;;;;;;;;;;;;;;;6.96;100.00;102902.66;4900789;29;20308;-68
2023/12/17 03:57:49;;;;;;;;;;;;;;;6.95;100.00;102894.84;4900438;29;19975;-72
2023/12/17 04:00:52;;;;;;;;;;;;;;;6.99;100.00;102899.19;4900495;29;19937;-72
2023/12/17 04:03:57;;;;;;;;;;;;;;;7.04;100.00;102893.97;4900663;29;19921;-72
2023/12/17 04:07:00;;;;;;;;;;;;;;;7.04;100.00;102897.44;4900234;29;19966;-72
2023/12/17 04:10:03;;;;;;;;;;;;;;;7.05;100.00;102893.09;4900276;29;19985;-72
2023/12/17 04:13:06;;;;;;;;;;;;;;;7.00;100.00;102893.13;4900110;29;19930;-72
2023/12/17 04:16:09;;;;;;;;;;;;;;;6.87;100.00;102899.19;4900262;29;19938;-72
2023/12/17 04:19:12;;;;;;;;;;;;;;;7.02;100.00;102894.00;4893233;29;19971;-72
2023/12/17 04:22:15;;;;;;;;;;;;;;;6.98;100.00;102893.09;4899990;29;19963;-72
2023/12/17 04:25:18;;;;;;;;;;;;;;;7.01;100.00;102891.38;4900326;29;19922;-72
2023/12/17 04:28:22;;;;;;;;;;;;;;;7.03;100.00;102898.31;4899867;29;20379;-72
2023/12/17 04:31:25;;;;;;;;;;;;;;;7.08;100.00;102896.56;4899899;29;20009;-72
2023/12/17 04:34:28;;;;;;;;;;;;;;;7.08;100.00;102895.72;4899795;29;19922;-72
2023/12/17 04:37:31;;;;;;;;;;;;;;;6.99;100.00;102900.06;4899720;29;19975;-72
2023/12/17 04:40:35;;;;;;;;;;;;;;;6.84;100.00;102893.97;4899804;29;20013;-72
2023/12/17 04:43:38;;;;;;;;;;;;;;;6.95;100.00;102898.28;4899560;29;19926;-72
2023/12/17 04:46:40;;;;;;;;;;;;;;;6.96;100.00;102894.84;4899582;29;19967;-72
2023/12/17 04:49:44;;;;;;;;;;;;;;;6.92;100.00;102903.53;4899519;29;20010;-72
2023/12/17 04:52:47;;;;;;;;;;;;;;;6.95;100.00;102897.44;4899420;29;19922;-72
2023/12/17 04:55:50;;;;;;;;;;;;;;;6.90;100.00;102899.19;4899364;29;19958;-72
2023/12/17 04:58:53;;;;;;;;;;;;;;;6.74;100.00;102893.97;4899337;29;20392;-72
2023/12/17 05:01:56;;;;;;;;;;;;;;;6.60;100.00;102900.84;4899300;29;20352;-72
2023/12/17 05:04:59;;;;;;;;;;;;;;;6.66;100.00;102908.66;4898190;29;20026;-72
2023/12/17 05:08:03;;;;;;;;;;;;;;;6.55;100.00;102900.00;4899496;29;19923;-72
2023/12/17 05:11:05;;;;;;;;;;;;;;;6.69;100.00;102895.66;4899131;29;19994;-72
2023/12/17 05:14:09;;;;;;;;;;;;;;;6.64;100.00;102892.22;4899059;29;19966;-72
2023/12/17 05:17:12;;;;;;;;;;;;;;;6.81;100.00;102889.63;4898850;29;19973;-72
2023/12/17 05:20:15;;;;;;;;;;;;;;;6.90;100.00;102893.97;4898890;29;19980;-72
2023/12/17 05:23:19;;;;;;;;;;;;;;;6.38;100.00;102891.25;4898893;29;19922;-72
2023/12/17 05:26:22;;;;;;;;;;;;;;;6.49;100.00;102892.16;4898983;29;19969;-72
2023/12/17 05:29:25;;;;;;;;;;;;;;;6.53;100.00;102893.91;4898515;29;19922;-73
2023/12/17 05:32:28;;;;;;;;;;;;;;;6.43;100.00;102886.94;4898777;29;19921;-73
2023/12/17 05:35:31;;;;;;;;;;;;;;;6.37;100.00;102895.59;4898855;29;20391;-73
2023/12/17 05:38:34;;;;;;;;;;;;;;;6.38;100.00;102896.47;4898578;29;19922;-73
2023/12/17 05:41:38;;;;;;;;;;;;;;;6.48;100.00;102906.91;4898553;29;19926;-72
2023/12/17 05:44:41;;;;;;;;;;;;;;;6.54;100.00;102906.06;4884662;29;20444;-72
2023/12/17 05:47:45;;;;;;;;;;;;;;;6.51;100.00;102895.66;4898552;29;19958;-72
2023/12/17 05:50:49;;;;;;;;;;;;;;;6.08;100.00;102895.50;4898543;29;19921;-72
2023/12/17 05:53:52;;;;;;;;;;;;;;;6.04;100.00;102901.53;4898732;29;19970;-72
2023/12/17 05:56:55;;;;;;;;;;;;;;;6.24;100.00;102899.88;4896778;29;19975;-72
2023/12/17 05:59:58;;;;;;;;;;;;;;;6.28;100.00;102893.81;4898400;29;20302;-72
2023/12/17 06:03:01;;;;;;;;;;;;;;;6.52;100.00;102892.19;4898390;29;20391;-72
2023/12/17 06:06:05;;;;;;;;;;;;;;;6.27;100.00;102892.09;4898630;29;19963;-73
2023/12/17 06:09:09;;;;;;;;;;;;;;;6.34;100.00;102892.97;4898266;29;19922;-72
2023/12/17 06:12:12;;;;;;;;;;;;;;;6.38;100.00;102883.47;4898401;29;19922;-72
2023/12/17 06:15:15;;;;;;;;;;;;;;;6.39;100.00;102887.81;4889982;29;19922;-72
2023/12/17 06:18:18;;;;;;;;;;;;;;;6.62;100.00;102893.06;4897542;29;20387;-72
2023/12/17 06:21:22;;;;;;;;;;;;;;;6.42;100.00;102899.09;4892171;29;20006;-72
2023/12/17 06:24:25;;;;;;;;;;;;;;;6.20;100.00;102895.53;4897987;29;19969;-72
2023/12/17 06:27:28;;;;;;;;;;;;;;;6.15;100.00;102902.44;4898085;29;19922;-73
2023/12/17 06:30:56;;;;;;;;;;;;;;;6.04;100.00;102901.53;4897347;29;20298;-73
2023/12/17 06:33:59;;;;;;;;;;;;;;;6.22;100.00;102903.31;4900087;29;20311;-73
2023/12/17 06:37:02;;;;;;;;;;;;;;;6.17;100.00;102900.72;4900287;29;19926;-73
2023/12/17 06:40:06;;;;;;;;;;;;;;;6.13;100.00;102898.13;4899627;29;19923;-74
2023/12/17 06:43:09;;;;;;;;;;;;;;;6.17;100.00;102890.34;4900159;29;19922;-73
2023/12/17 06:46:21;;;;;;;;;;;;;;;6.27;100.00;102897.28;4901018;29;19923;-73
2023/12/17 06:49:24;;;;;;;;;;;;;;;6.20;100.00;102892.94;4901228;29;19922;-73
2023/12/17 06:52:27;;;;;;;;;;;;;;;6.09;100.00;102897.22;4901689;29;20345;-73
2023/12/17 06:55:30;;;;;;;;;;;;;;;6.08;100.00;102898.09;4901466;29;20339;-73
2023/12/17 06:58:33;;;;;;;;;;;;;;;6.10;100.00;102898.97;4901463;29;20007;-73
2023/12/17 07:01:36;;;;;;;;;;;;;;;6.12;100.00;102901.56;4901494;29;20401;-73
2023/12/17 07:04:39;;;;;;;;;;;;;;;6.26;100.00;102895.56;4901428;29;19922;-73
2023/12/17 07:07:43;;;;;;;;;;;;;;;6.43;100.00;102902.53;4901296;29;19982;-73
2023/12/17 07:10:46;;;;;;;;;;;;;;;6.57;100.00;102895.63;4898891;29;20007;-73
2023/12/17 07:13:49;;;;;;;;;;;;;;;6.63;100.00;102895.66;4901205;29;19938;-73
2023/12/17 07:16:53;;;;;;;;;;;;;;;6.64;100.00;102897.41;4901221;29;19926;-73
2023/12/17 07:19:55;;;;;;;;;;;;;;;6.50;100.00;102893.91;4901133;29;20394;-73
2023/12/17 07:22:59;;;;;;;;;;;;;;;6.61;100.00;102894.81;4901102;29;19921;-73
2023/12/17 07:26:01;;;;;;;;;;;;;;;6.64;100.00;102896.56;4901125;29;19963;-73
2023/12/17 07:29:05;;;;;;;;;;;;;;;6.77;99.83;102897.44;4901054;29;20299;-73
2023/12/17 07:32:08;;;;;;;;;;;;;;;6.70;100.00;102902.63;4896031;29;20420;-74
2023/12/17 07:35:12;;;;;;;;;;;;;;;6.75;99.78;102908.69;4892410;29;19923;-73
2023/12/17 07:38:15;;;;;;;;;;;;;;;6.74;99.92;102906.09;4879710;29;20280;-74
2023/12/17 07:41:19;;;;;;;;;;;;;;;6.80;99.96;102903.50;4888115;29;19935;-72
2023/12/17 07:44:22;;;;;;;;;;;;;;;6.81;99.55;102897.44;4898316;29;19922;-72
2023/12/17 07:47:26;;;;;;;;;;;;;;;6.83;99.22;102900.03;4899657;29;19959;-72
2023/12/17 07:50:29;;;;;;;;;;;;;;;6.70;98.85;102901.72;4899705;29;19922;-72
2023/12/17 07:53:32;;;;;;;;;;;;;;;6.50;100.00;102910.34;4899864;29;19974;-72
2023/12/17 07:56:35;;;;;;;;;;;;;;;6.58;100.00;102904.34;4888837;29;20407;-74
2023/12/17 07:59:39;;;;;;;;;;;;;;;6.59;100.00;102900.84;4881459;29;19931;-75
2023/12/17 08:02:45;;;;;;;;;;;;;;;6.64;100.00;102900.00;4881595;29;19973;-74
2023/12/17 08:05:48;;;;;;;;;;;;;;;6.70;99.68;102902.63;4880985;29;20393;-73
2023/12/17 08:08:54;;;;;;;;;;;;;;;6.65;99.76;102904.34;4880778;29;19927;-73
2023/12/17 08:11:57;;;;;;;;;;;;;;;6.59;99.81;102893.94;4881043;29;20007;-72
2023/12/17 08:15:00;;;;;;;;;;;;;;;6.53;100.00;102899.09;4880665;29;20040;-72
2023/12/17 08:18:03;;;;;;;;;;;;;;;6.57;100.00;102907.78;4880253;29;20033;-73
2023/12/17 08:21:07;;;;;;;;;;;;;;;6.46;100.00;102913.81;4880447;29;20007;-72
2023/12/17 08:24:10;;;;;;;;;;;;;;;6.59;100.00;102908.66;4880441;29;19923;-72
2023/12/17 08:27:14;;;;;;;;;;;;;;;6.58;100.00;102918.19;4880328;29;19970;-72
2023/12/17 08:30:17;;;;;;;;;;;;;;;6.31;100.00;102913.75;4880410;29;19968;-72
2023/12/17 08:33:21;;;;;;;;;;;;;;;6.37;100.00;102918.97;4880674;29;19927;-72
2023/12/17 08:36:25;;;;;;;;;;;;;;;6.31;100.00;102913.75;4883541;29;19927;-72
2023/12/17 08:39:28;;;;;;;;;;;;;;;6.37;100.00;102918.13;4885892;29;20055;-73
2023/12/17 08:42:32;;;;;;;;;;;;;;;6.47;100.00;102918.13;4887030;29;19930;-73
2023/12/17 08:45:36;;;;;;;;;;;;;;;6.51;100.00;102911.25;4880011;29;19975;-72
2023/12/17 08:48:38;;;;;;;;;;;;;;;6.60;100.00;102923.38;4880080;29;20051;-73
2023/12/17 08:51:42;;;;;;;;;;;;;;;6.44;100.00;102923.31;4896278;29;20006;-72
2023/12/17 08:54:45;;;;;;;;;;;;;;;6.45;100.00;102919.03;4890038;29;19922;-72
2023/12/17 08:57:48;;;;;;;;;;;;;;;6.61;99.79;102918.19;4891904;29;19975;-73
2023/12/17 09:00:53;;;;;;;;;;;;;;;6.72;99.33;102913.00;4892577;29;19980;-72
2023/12/17 09:03:56;;;;;;;;;;;;;;;6.79;98.56;102917.34;4887758;29;19926;-72
2023/12/17 09:07:00;;;;;;;;;;;;;;;6.86;98.16;102924.31;4879644;29;19995;-73
2023/12/17 09:10:03;;;;;;;;;;;;;;;6.86;98.51;102918.22;4890986;29;20333;-73
2023/12/17 09:13:09;;;;;;;;;;;;;;;6.93;98.24;102920.00;4881664;29;19926;-71
2023/12/17 09:16:12;;;;;;;;;;;;;;;7.06;98.25;102911.34;4885109;29;19927;-73
2023/12/17 09:19:15;;;;;;;;;;;;;;;6.91;97.53;102917.38;4891296;29;19997;-72
2023/12/17 09:22:19;;;;;;;;;;;;;;;6.88;97.98;102916.50;4882384;29;20283;-72
2023/12/17 09:25:23;;;;;;;;;;;;;;;6.81;98.57;102915.63;4873419;29;19967;-72
2023/12/17 09:28:26;;;;;;;;;;;;;;;6.85;98.36;102919.09;4879429;29;19937;-73
2023/12/17 09:31:29;;;;;;;;;;;;;;;6.86;98.13;102913.03;4890769;29;19962;-72
2023/12/17 09:34:32;;;;;;;;;;;;;;;6.98;97.49;102924.31;4897844;29;19922;-71
2023/12/17 09:37:36;;;;;;;;;;;;;;;7.03;96.91;102924.34;4880733;29;19931;-72
2023/12/17 09:40:39;;;;;;;;;;;;;;;6.93;96.92;102923.47;4878907;29;19970;-71
2023/12/17 09:43:43;;;;;;;;;;;;;;;6.77;98.46;102918.25;4879014;29;20455;-70
2023/12/17 09:46:46;;;;;;;;;;;;;;;6.79;97.96;102914.75;4879010;29;19972;-71
2023/12/17 09:49:50;;;;;;;;;;;;;;;6.93;97.53;102920.00;4878880;29;19967;-71
2023/12/17 09:52:54;;;;;;;;;;;;;;;6.90;97.53;102917.38;4879005;29;19922;-70
2023/12/17 09:55:58;;;;;;;;;;;;;;;6.94;97.65;102906.97;4878726;29;19927;-72
2023/12/17 09:59:01;;;;;;;;;;;;;;;7.07;97.25;102907.84;4878761;29;20387;-71
2023/12/17 10:02:04;;;;;;;;;;;;;;;6.99;97.33;102909.59;4878820;29;20387;-70
2023/12/17 10:05:07;;;;;;;;;;;;;;;7.20;96.75;102904.38;4879088;29;20379;-72
2023/12/17 10:08:11;;;;;;;;;;;;;;;7.23;95.83;102906.97;4878766;29;19963;-72
2023/12/17 10:11:15;;;;;;;;;;;;;;;7.20;95.11;102904.38;4878827;29;19979;-72
2023/12/17 10:14:25;;;;;;;;;;;;;;;7.22;95.70;102907.00;4878728;29;19922;-74
2023/12/17 10:17:28;;;;;;;;;;;;;;;7.26;94.84;102900.91;4878566;29;20294;-73
2023/12/17 10:20:31;;;;;;;;;;;;;;;7.40;94.43;102901.78;4878657;29;20349;-75
2023/12/17 10:23:47;;;;;;;;;;;;;;;7.22;94.85;102900.06;4878399;29;19922;-75
2023/12/17 10:26:53;;;;;;;;;;;;;;;7.17;95.30;102893.09;4878563;29;19922;-75
2023/12/17 10:29:59;;;;;;;;;;;;;;;7.07;95.93;102887.03;4879011;29;20325;-74
2023/12/17 10:33:02;;;;;;;;;;;;;;;7.23;96.00;102883.56;4878475;29;19936;-74
2023/12/17 10:36:06;;;;;;;;;;;;;;;7.23;96.15;102877.50;4878541;29;19951;-74
2023/12/17 10:39:11;;;;;;;;;;;;;;;7.33;95.27;102862.75;4871282;29;19923;-74
2023/12/17 10:42:14;;;;;;;;;;;;;;;7.51;94.11;102859.25;4878288;29;19926;-74
2023/12/17 10:45:19;;;;;;;;;;;;;;;7.30;94.83;102857.53;4878441;29;19922;-74
2023/12/17 10:48:23;;;;;;;;;;;;;;;7.33;95.16;102862.75;4878636;29;20292;-74
2023/12/17 10:51:29;;;;;;;;;;;;;;;7.56;94.23;102855.78;4873340;29;20380;-74
2023/12/17 10:54:32;;;;;;;;;;;;;;;7.51;93.93;102844.50;4878531;29;19922;-74
2023/12/17 10:57:37;;;;;;;;;;;;;;;7.59;94.16;102845.31;4878206;29;19926;-74
2023/12/17 11:00:40;;;;;;;;;;;;;;;7.39;94.80;102834.09;4883363;29;19927;-73
2023/12/17 11:03:44;;;;;;;;;;;;;;;7.35;95.34;102828.03;4887004;29;19922;-73
2023/12/17 11:06:48;;;;;;;;;;;;;;;7.32;95.53;102827.19;4882669;29;20002;-74
2023/12/17 11:09:51;;;;;;;;;;;;;;;7.38;95.10;102815.03;4878050;29;19938;-74
2023/12/17 11:12:55;;;;;;;;;;;;;;;7.46;94.41;102810.63;4878120;29;20341;-74
2023/12/17 11:16:16;;;;;;;;;;;;;;;7.74;94.18;102807.97;4878243;29;19942;-75
2023/12/17 11:19:19;;;;;;;;;;;;;;;7.68;93.18;102803.63;4880410;29;19978;-74
2023/12/17 11:22:25;;;;;;;;;;;;;;;7.75;92.46;102811.44;4881488;29;19971;-74
2023/12/17 11:25:30;;;;;;;;;;;;;;;7.68;92.84;102807.97;4877227;29;19938;-74
2023/12/17 11:28:34;;;;;;;;;;;;;;;7.71;92.85;102799.28;4871220;29;19975;-74
2023/12/17 11:31:37;;;;;;;;;;;;;;;7.71;92.54;102794.09;4888458;29;20348;-75
2023/12/17 11:34:41;;;;;;;;;;;;;;;7.67;92.54;102788.88;4891781;29;19986;-76
2023/12/17 11:37:47;;;;;;;;;;;;;;;7.87;91.83;102785.31;4899676;29;20021;-76
2023/12/17 11:40:50;;;;;;;;;;;;;;;7.67;92.15;102778.47;4899447;29;19948;-74
2023/12/17 11:43:54;;;;;;;;;;;;;;;7.71;92.80;102775.84;4899906;29;19921;-74
2023/12/17 11:46:57;;;;;;;;;;;;;;;7.56;93.81;102767.25;4898329;29;19931;-73
2023/12/17 11:50:00;;;;;;;;;;;;;;;7.61;94.79;102765.47;4899640;29;19958;-72
2023/12/17 11:53:03;;;;;;;;;;;;;;;7.79;94.69;102756.72;4899540;29;19922;-72
2023/12/17 11:56:08;;;;;;;;;;;;;;;8.00;93.57;102747.91;4899459;29;19995;-72
2023/12/17 11:59:11;;;;;;;;;;;;;;;8.02;93.59;102751.38;4899491;29;19985;-72
2023/12/17 12:02:16;;;;;;;;;;;;;;;8.06;93.51;102750.47;4899603;29;19952;-74
2023/12/17 12:05:19;;;;;;;;;;;;;;;8.08;93.62;102746.13;4899513;29;19922;-74
2023/12/17 12:11:57;;;;;;;;;;;;;;;8.05;93.38;102750.50;4899602;29;20303;-73
2023/12/17 12:15:02;;;;;;;;;;;;;;;8.11;93.41;102748.72;4899814;29;19922;-77
2023/12/17 12:18:18;;;;;;;;;;;;;;;8.12;93.08;102741.78;4899727;29;20006;-75
2023/12/17 12:21:27;;;;;;;;;;;;;;;8.07;92.46;102744.41;4899840;29;19942;-76
2023/12/17 12:24:42;;;;;;;;;;;;;;;8.02;92.85;102740.09;4899986;29;19965;-77
2023/12/17 12:27:50;;;;;;;;;;;;;;;7.95;93.99;102730.59;4899673;29;20022;-72
2023/12/17 12:31:07;;;;;;;;;;;;;;;7.97;94.49;102721.88;4897833;29;19930;-76
2023/12/17 12:34:10;;;;;;;;;;;;;;;7.90;95.31;102720.19;4899063;29;19922;-76
2023/12/17 12:37:13;;;;;;;;;;;;;;;7.91;95.18;102711.50;4898831;29;20276;-77
2023/12/17 12:40:17;;;;;;;;;;;;;;;8.02;94.22;102703.63;4898832;29;19970;-79
2023/12/17 12:43:23;;;;;;;;;;;;;;;7.94;94.36;102701.06;4898824;29;19962;-75
2023/12/17 12:46:26;;;;;;;;;;;;;;;7.92;94.34;102700.22;4898687;29;19974;-74
2023/12/17 12:49:37;;;;;;;;;;;;;;;7.99;93.97;102693.22;4898820;29;20426;-74
2023/12/17 12:52:49;;;;;;;;;;;;;;;7.96;94.64;102690.63;4899082;29;19926;-75
2023/12/17 12:55:52;;;;;;;;;;;;;;;7.92;95.16;102684.59;4898583;29;19935;-77
2023/12/17 12:58:55;;;;;;;;;;;;;;;7.90;95.30;102681.13;4898091;29;19938;-75
2023/12/17 13:01:59;;;;;;;;;;;;;;;7.90;95.03;102670.69;4898605;29;19922;-74
2023/12/17 13:05:14;;;;;;;;;;;;;;;7.90;95.09;102673.31;4898079;29;19962;-77
2023/12/17 13:08:20;;;;;;;;;;;;;;;7.95;95.11;102658.53;4898448;29;20006;-75
2023/12/17 13:11:23;;;;;;;;;;;;;;;7.94;94.61;102659.38;4896738;29;20288;-75
2023/12/17 13:14:26;;;;;;;;;;;;;;;7.96;94.79;102656.78;4897822;29;19947;-75
2023/12/17 13:17:29;;;;;;;;;;;;;;;7.87;95.19;102649.88;4897414;29;19978;-75
2023/12/17 13:20:33;;;;;;;;;;;;;;;7.92;95.21;102640.31;4901200;29;19921;-75
2023/12/17 13:23:36;;;;;;;;;;;;;;;7.97;95.28;102628.09;4897950;29;19926;-74
2023/12/17 13:26:39;;;;;;;;;;;;;;;7.95;95.44;102626.41;4897824;29;19971;-73
2023/12/17 13:29:43;;;;;;;;;;;;;;;7.90;95.72;102626.41;4898163;29;19938;-74
2023/12/17 13:32:47;;;;;;;;;;;;;;;7.91;95.89;102616.00;4897996;29;19992;-74
2023/12/17 13:35:50;;;;;;;;;;;;;;;7.86;96.08;102612.56;4897564;29;19926;-72
2023/12/17 13:38:53;;;;;;;;;;;;;;;7.87;95.67;102605.59;4897545;29;19971;-73
2023/12/17 13:41:56;;;;;;;;;;;;;;;7.89;95.65;102609.94;4897035;29;19930;-69
2023/12/17 13:44:59;;;;;;;;;;;;;;;7.79;95.96;102610.03;4897716;29;20010;-74
2023/12/17 13:48:03;;;;;;;;;;;;;;;7.75;96.63;102606.56;4897607;29;20371;-74
2023/12/17 13:51:06;;;;;;;;;;;;;;;7.68;97.27;102610.94;4897428;29;19966;-74
2023/12/17 13:54:10;;;;;;;;;;;;;;;7.62;97.88;102610.13;4897529;29;19922;-74
2023/12/17 13:57:18;;;;;;;;;;;;;;;7.65;97.21;102600.53;4897225;29;19973;-74
2023/12/17 14:00:21;;;;;;;;;;;;;;;7.61;97.67;102605.78;4897771;29;19948;-73
2023/12/17 14:03:26;;;;;;;;;;;;;;;7.60;97.76;102602.34;4897361;29;19922;-73
2023/12/17 14:06:29;;;;;;;;;;;;;;;7.51;98.22;102591.13;4897466;29;19978;-75
2023/12/17 14:09:33;;;;;;;;;;;;;;;7.50;98.37;102587.66;4897587;29;20233;-72
2023/12/17 14:12:37;;;;;;;;;;;;;;;7.50;98.03;102599.78;4897254;29;20398;-71
2023/12/17 14:15:40;;;;;;;;;;;;;;;7.52;98.09;102598.03;4897537;29;20336;-73
2023/12/17 14:18:43;;;;;;;;;;;;;;;7.49;98.49;102604.13;4897246;29;19922;-73
2023/12/17 14:21:46;;;;;;;;;;;;;;;7.44;98.52;102600.72;4897530;29;20291;-73
2023/12/17 14:24:50;;;;;;;;;;;;;;;7.37;98.56;102605.09;4897200;29;19945;-73
2023/12/17 14:27:54;;;;;;;;;;;;;;;7.34;99.29;102601.59;4897118;29;20391;-73
2023/12/17 14:30:58;;;;;;;;;;;;;;;7.35;98.96;102611.16;4897002;29;20062;-73
2023/12/17 14:34:01;;;;;;;;;;;;;;;7.34;99.40;102602.50;4897212;29;19975;-72
2023/12/17 14:37:05;;;;;;;;;;;;;;;7.37;99.26;102599.88;4897302;29;20291;-73
2023/12/17 14:40:08;;;;;;;;;;;;;;;7.32;99.00;102600.78;4896940;29;20013;-74
2023/12/17 14:43:11;;;;;;;;;;;;;;;7.31;99.01;102599.06;4896979;29;19922;-74
2023/12/17 14:46:14;;;;;;;;;;;;;;;7.26;98.78;102595.59;4897078;29;19922;-74
2023/12/17 14:49:18;;;;;;;;;;;;;;;7.25;99.18;102596.47;4896924;29;19922;-74
2023/12/17 14:52:21;;;;;;;;;;;;;;;7.13;99.45;102590.44;4896993;29;19938;-74
2023/12/17 14:55:24;;;;;;;;;;;;;;;7.03;100.00;102590.50;4900617;29;19966;-73
2023/12/17 14:58:27;;;;;;;;;;;;;;;7.03;100.00;102593.13;4900657;29;20002;-73
2023/12/17 15:01:30;;;;;;;;;;;;;;;6.92;100.00;102600.94;4900620;29;20344;-73
2023/12/17 15:04:33;;;;;;;;;;;;;;;6.99;100.00;102602.66;4900502;29;20455;-73
2023/12/17 15:07:36;;;;;;;;;;;;;;;6.94;100.00;102600.06;4900478;29;19931;-73
2023/12/17 15:10:39;;;;;;;;;;;;;;;7.00;100.00;102599.19;4900367;29;20006;-73
2023/12/17 15:13:43;;;;;;;;;;;;;;;6.99;100.00;102605.28;4900430;29;19923;-73
2023/12/17 15:16:47;;;;;;;;;;;;;;;6.88;100.00;102597.50;4900299;29;20356;-73
2023/12/17 15:19:52;;;;;;;;;;;;;;;6.87;100.00;102602.72;4900564;29;19970;-73
2023/12/17 15:22:55;;;;;;;;;;;;;;;6.82;100.00;102604.44;4900217;29;20004;-73
2023/12/17 15:25:58;;;;;;;;;;;;;;;6.61;100.00;102597.59;4900076;29;19922;-73
2023/12/17 15:29:01;;;;;;;;;;;;;;;6.68;100.00;102597.56;4900120;29;20021;-73
2023/12/17 15:32:07;;;;;;;;;;;;;;;6.57;100.00;102601.91;4900327;29;20382;-73
2023/12/17 15:35:11;;;;;;;;;;;;;;;6.53;100.00;102602.81;4892621;29;20443;-73
2023/12/17 15:38:15;;;;;;;;;;;;;;;6.51;100.00;102599.34;4899727;29;19935;-74
2023/12/17 15:45:05;;;;;;;;;;;;;;;6.39;99.74;102602.84;4898840;29;19922;-72
2023/12/17 15:48:08;;;;;;;;;;;;;;;6.39;99.79;102599.38;4900324;29;19930;-73
2023/12/17 15:51:13;;;;;;;;;;;;;;;6.24;99.68;102601.13;4893532;29;19923;-73
2023/12/17 15:54:17;;;;;;;;;;;;;;;6.21;99.63;102600.25;4900889;29;20385;-73
2023/12/17 15:57:20;;;;;;;;;;;;;;;6.12;99.83;102606.31;4900436;29;19926;-72